Time,TemperatureF,DewpointF,PressureIn,WindDirection,WindDirectionDegrees,WindSpeedMPH,WindSpeedGustMPH,Humidity,HourlyPrecipIn,Conditions,Clouds,dailyrainin,SoftwareType,DateUTC
2013-08-11 00:00:00,73.2,71.4,29.98,NW,310,3.5,3.5,94,0.00,BKN,OVC,0.06,WeatherDisplay:10.37,2013-08-11 04:00:00,
2013-08-11 00:01:00,73.2,71.4,29.98,NW,310,3.5,3.5,94,0.00,RA,OVC,0.00,WeatherDisplay:10.37,2013-08-11 04:01:00,
2013-08-11 00:06:00,73.0,71.2,29.97,NW,310,3.5,3.5,94,0.00,RA,OVC,0.00,WeatherDisplay:10.37,2013-08-11 04:06:00,
2013-08-11 00:11:00,73.0,71.2,29.97,NW,310,3.5,3.5,94,0.00,BKN,OVC,0.00,WeatherDisplay:10.37,2013-08-11 04:11:00,
2013-08-11 00:16:00,73.0,71.2,29.97,North,10,3.5,4.6,94,0.00,BKN,OVC,0.00,WeatherDisplay:10.37,2013-08-11 04:16:00,
2013-08-11 00:21:00,73.0,71.2,29.98,North,10,4.6,4.6,94,0.00,BKN,OVC,0.00,WeatherDisplay:10.37,2013-08-11 04:21:00,
2013-08-11 00:26:00,72.9,71.0,29.98,North,10,4.6,4.6,94,0.00,BKN,OVC,0.00,WeatherDisplay:10.37,2013-08-11 04:26:00,
2013-08-11 00:31:00,72.9,71.0,29.98,North,10,4.6,4.6,94,0.00,BKN,OVC,0.00,WeatherDisplay:10.37,2013-08-11 04:31:00,
2013-08-11 00:36:00,72.7,70.9,29.97,North,10,4.6,4.6,94,0.00,BKN,OVC,0.00,WeatherDisplay:10.37,2013-08-11 04:36:00,
2013-08-11 00:41:00,72.7,70.9,29.97,North,10,4.6,4.6,94,0.00,BKN,OVC,0.00,WeatherDisplay:10.37,2013-08-11 04:41:00,
2013-08-11 00:46:00,72.7,70.9,29.97,North,350,4.6,4.6,94,0.00,BKN,OVC,0.00,WeatherDisplay:10.37,2013-08-11 04:46:00,
2013-08-11 00:51:00,72.7,70.9,29.98,North,350,4.6,4.6,94,0.00,BKN,OVC,0.00,WeatherDisplay:10.37,2013-08-11 04:51:00,
2013-08-11 00:56:00,72.5,70.7,29.98,North,350,4.6,4.6,94,0.00,BKN,OVC,0.00,WeatherDisplay:10.37,2013-08-11 04:56:00,
2013-08-11 01:01:00,72.5,70.7,29.98,North,350,4.6,4.6,94,0.00,BKN,OVC,0.00,WeatherDisplay:10.37,2013-08-11 05:01:00,
2013-08-11 01:07:00,72.3,70.5,29.98,North,350,4.6,4.6,94,0.00,BKN,OVC,0.00,WeatherDisplay:10.37,2013-08-11 05:07:00,
2013-08-11 01:12:00,72.3,70.5,29.98,North,350,4.6,4.6,94,0.00,BKN,OVC,0.00,WeatherDisplay:10.37,2013-08-11 05:12:00,
2013-08-11 01:17:00,72.3,70.5,29.98,North,350,4.6,0.0,94,0.00,CLR,OVC,0.00,WeatherDisplay:10.37,2013-08-11 05:17:00,
2013-08-11 01:22:00,72.3,70.5,29.98,North,350,0.0,0.0,94,0.00,CLR,OVC,0.00,WeatherDisplay:10.37,2013-08-11 05:22:00,
2013-08-11 01:28:00,72.3,70.5,29.98,North,350,0.0,0.0,94,0.00,CLR,OVC,0.00,WeatherDisplay:10.37,2013-08-11 05:28:00,
2013-08-11 01:33:00,72.1,70.3,29.98,North,350,0.0,0.0,94,0.00,CLR,OVC,0.00,WeatherDisplay:10.37,2013-08-11 05:33:00,
2013-08-11 01:38:00,72.1,70.3,29.98,North,350,0.0,0.0,94,0.00,CLR,OVC,0.00,WeatherDisplay:10.37,2013-08-11 05:38:00,
2013-08-11 01:43:00,72.1,70.3,29.98,North,350,0.0,0.0,94,0.00,CLR,OVC,0.00,WeatherDisplay:10.37,2013-08-11 05:43:00,
2013-08-11 01:48:00,72.0,70.1,29.98,North,350,0.0,0.0,94,0.00,CLR,OVC,0.00,WeatherDisplay:10.37,2013-08-11 05:48:00,
2013-08-11 01:54:00,72.0,70.1,29.98,North,350,0.0,0.0,94,0.00,CLR,OVC,0.00,WeatherDisplay:10.37,2013-08-11 05:54:00,
2013-08-11 01:59:00,72.0,70.1,29.98,North,350,0.0,0.0,94,0.00,CLR,OVC,0.00,WeatherDisplay:10.37,2013-08-11 05:59:00,
2013-08-11 02:04:00,71.8,70.0,29.98,North,350,0.0,0.0,94,0.00,CLR,OVC,0.00,WeatherDisplay:10.37,2013-08-11 06:04:00,
2013-08-11 02:09:00,71.8,70.0,29.98,North,350,0.0,0.0,94,0.00,CLR,OVC,0.00,WeatherDisplay:10.37,2013-08-11 06:09:00,
2013-08-11 02:14:00,71.8,70.0,29.98,North,350,0.0,0.0,94,0.00,CLR,OVC,0.00,WeatherDisplay:10.37,2013-08-11 06:14:00,
2013-08-11 02:20:00,71.8,70.0,29.98,North,350,0.0,0.0,94,0.00,CLR,OVC,0.00,WeatherDisplay:10.37,2013-08-11 06:20:00,
2013-08-11 02:25:00,71.6,69.8,29.97,North,350,0.0,0.0,94,0.00,CLR,OVC,0.00,WeatherDisplay:10.37,2013-08-11 06:25:00,
2013-08-11 02:30:00,71.6,69.8,29.98,North,350,0.0,0.0,94,0.00,CLR,OVC,0.00,WeatherDisplay:10.37,2013-08-11 06:30:00,
2013-08-11 02:35:00,71.4,69.6,29.97,North,350,0.0,0.0,94,0.00,CLR,OVC,0.00,WeatherDisplay:10.37,2013-08-11 06:35:00,
2013-08-11 02:40:00,71.6,69.8,29.98,North,350,0.0,0.0,94,0.00,CLR,OVC,0.00,WeatherDisplay:10.37,2013-08-11 06:40:00,
2013-08-11 02:46:00,71.4,69.6,29.98,North,350,0.0,0.0,94,0.00,CLR,OVC,0.00,WeatherDisplay:10.37,2013-08-11 06:46:00,
2013-08-11 02:51:00,71.4,69.6,29.98,North,350,0.0,0.0,94,0.00,CLR,OVC,0.00,WeatherDisplay:10.37,2013-08-11 06:51:00,
2013-08-11 02:56:00,71.4,69.6,29.98,North,350,0.0,0.0,94,0.00,CLR,OVC,0.00,WeatherDisplay:10.37,2013-08-11 06:56:00,
2013-08-11 03:01:00,71.4,69.6,29.97,North,350,0.0,0.0,94,0.00,CLR,OVC,0.00,WeatherDisplay:10.37,2013-08-11 07:01:00,
2013-08-11 03:06:00,71.4,69.6,29.97,North,350,0.0,0.0,94,0.00,CLR,OVC,0.00,WeatherDisplay:10.37,2013-08-11 07:06:00,
2013-08-11 03:11:00,71.4,69.6,29.97,North,350,0.0,0.0,94,0.00,CLR,OVC,0.00,WeatherDisplay:10.37,2013-08-11 07:11:00,
2013-08-11 03:17:00,71.4,69.6,29.98,North,350,0.0,0.0,94,0.00,FEW,OVC,0.00,WeatherDisplay:10.37,2013-08-11 07:17:00,
2013-08-11 03:22:00,71.4,69.6,29.97,North,350,0.0,0.0,94,0.00,FEW,OVC,0.00,WeatherDisplay:10.37,2013-08-11 07:22:00,
2013-08-11 03:27:00,71.6,69.8,29.98,North,350,0.0,0.0,94,0.00,FEW,OVC,0.00,WeatherDisplay:10.37,2013-08-11 07:27:00,
2013-08-11 03:32:00,71.6,70.1,29.97,North,350,0.0,0.0,95,0.00,FEW,OVC,0.00,WeatherDisplay:10.37,2013-08-11 07:32:00,
2013-08-11 03:37:00,71.8,70.3,29.97,North,350,0.0,0.0,95,0.00,FEW,OVC,0.00,WeatherDisplay:10.37,2013-08-11 07:37:00,
2013-08-11 03:42:00,71.8,70.3,29.97,North,350,0.0,0.0,95,0.00,FEW,OVC,0.00,WeatherDisplay:10.37,2013-08-11 07:42:00,
2013-08-11 03:47:00,71.8,70.3,29.98,North,350,0.0,0.0,95,0.00,BKN,OVC,0.00,WeatherDisplay:10.37,2013-08-11 07:47:00,
2013-08-11 03:52:00,71.8,70.3,29.98,North,350,0.0,0.0,95,0.00,BKN,OVC,0.00,WeatherDisplay:10.37,2013-08-11 07:52:00,
2013-08-11 03:57:00,71.8,70.3,29.98,North,350,0.0,0.0,95,0.00,BKN,OVC,0.00,WeatherDisplay:10.37,2013-08-11 07:57:00,
2013-08-11 04:03:00,71.8,70.3,29.98,North,350,0.0,0.0,95,0.00,BKN,OVC,0.00,WeatherDisplay:10.37,2013-08-11 08:03:00,
2013-08-11 04:08:00,71.8,70.3,29.98,North,350,0.0,0.0,95,0.00,BKN,OVC,0.00,WeatherDisplay:10.37,2013-08-11 08:08:00,
2013-08-11 04:14:00,72.0,70.4,29.98,North,350,0.0,0.0,95,0.00,BKN,OVC,0.00,WeatherDisplay:10.37,2013-08-11 08:14:00,
2013-08-11 04:19:00,72.0,70.4,29.98,North,350,0.0,0.0,95,0.00,OVC,,0.00,WeatherDisplay:10.37,2013-08-11 08:19:00,
2013-08-11 04:25:00,72.0,70.4,29.98,North,350,0.0,0.0,95,0.00,OVC,,0.00,WeatherDisplay:10.37,2013-08-11 08:25:00,
2013-08-11 04:31:00,72.0,70.4,29.98,North,350,0.0,0.0,95,0.00,OVC,,0.00,WeatherDisplay:10.37,2013-08-11 08:31:00,
2013-08-11 04:36:00,72.0,70.4,29.98,North,350,0.0,0.0,95,0.00,OVC,,0.00,WeatherDisplay:10.37,2013-08-11 08:36:00,
2013-08-11 04:41:00,72.0,70.4,29.98,North,350,0.0,0.0,95,0.00,OVC,,0.00,WeatherDisplay:10.37,2013-08-11 08:41:00,
2013-08-11 04:46:00,72.0,70.4,29.98,North,350,0.0,0.0,95,0.00,OVC,,0.00,WeatherDisplay:10.37,2013-08-11 08:46:00,
2013-08-11 04:52:00,71.8,70.3,29.98,North,350,0.0,0.0,95,0.00,OVC,,0.00,WeatherDisplay:10.37,2013-08-11 08:52:00,
2013-08-11 04:57:00,71.8,70.3,29.98,North,350,0.0,0.0,95,0.00,OVC,,0.00,WeatherDisplay:10.37,2013-08-11 08:57:00,
2013-08-11 05:02:00,71.8,70.3,29.98,North,350,0.0,0.0,95,0.00,OVC,,0.00,WeatherDisplay:10.37,2013-08-11 09:02:00,
2013-08-11 05:08:00,71.8,70.3,29.98,North,350,0.0,0.0,95,0.00,OVC,,0.00,WeatherDisplay:10.37,2013-08-11 09:08:00,
2013-08-11 05:13:00,71.8,70.3,29.99,North,350,0.0,0.0,95,0.00,OVC,,0.00,WeatherDisplay:10.37,2013-08-11 09:13:00,
2013-08-11 05:19:00,71.8,70.3,29.98,North,350,0.0,0.0,95,0.00,OVC,,0.00,WeatherDisplay:10.37,2013-08-11 09:19:00,
2013-08-11 05:24:00,71.6,70.1,29.99,North,350,0.0,0.0,95,0.00,OVC,,0.00,WeatherDisplay:10.37,2013-08-11 09:24:00,
2013-08-11 05:30:00,71.4,69.9,29.99,North,350,0.0,0.0,95,0.00,OVC,OVC,0.00,WeatherDisplay:10.37,2013-08-11 09:30:00,
2013-08-11 05:35:00,71.4,69.9,29.99,North,350,0.0,0.0,95,0.00,OVC,,0.00,WeatherDisplay:10.37,2013-08-11 09:35:00,
2013-08-11 05:40:00,71.4,69.9,29.99,North,350,0.0,0.0,95,0.00,OVC,,0.00,WeatherDisplay:10.37,2013-08-11 09:40:00,
2013-08-11 05:45:00,71.4,69.9,29.99,North,350,0.0,0.0,95,0.00,OVC,,0.00,WeatherDisplay:10.37,2013-08-11 09:45:00,
2013-08-11 05:50:00,71.2,69.7,29.99,North,350,0.0,0.0,95,0.00,OVC,,0.00,WeatherDisplay:10.37,2013-08-11 09:50:00,
2013-08-11 05:55:00,71.2,69.7,29.99,North,350,0.0,0.0,95,0.00,OVC,,0.00,WeatherDisplay:10.37,2013-08-11 09:55:00,
2013-08-11 06:01:00,71.2,69.7,29.99,North,350,0.0,0.0,95,0.00,OVC,,0.00,WeatherDisplay:10.37,2013-08-11 10:01:00,
2013-08-11 06:06:00,70.9,69.1,29.99,North,350,0.0,0.0,94,0.00,OVC,,0.00,WeatherDisplay:10.37,2013-08-11 10:06:00,
2013-08-11 06:11:00,70.9,69.4,29.99,North,350,0.0,0.0,95,0.00,OVC,,0.00,WeatherDisplay:10.37,2013-08-11 10:11:00,
2013-08-11 06:16:00,70.7,69.2,29.99,North,350,0.0,0.0,95,0.00,OVC,,0.00,WeatherDisplay:10.37,2013-08-11 10:16:00,
2013-08-11 06:22:00,70.7,69.2,29.99,North,350,0.0,0.0,95,0.00,OVC,,0.00,WeatherDisplay:10.37,2013-08-11 10:22:00,
2013-08-11 06:28:00,70.7,68.9,29.99,North,350,0.0,0.0,94,0.00,OVC,,0.00,WeatherDisplay:10.37,2013-08-11 10:28:00,
2013-08-11 06:33:00,70.5,68.7,29.99,North,350,0.0,0.0,94,0.00,OVC,,0.00,WeatherDisplay:10.37,2013-08-11 10:33:00,
2013-08-11 06:38:00,70.5,69.0,29.99,North,350,0.0,0.0,95,0.00,OVC,,0.00,WeatherDisplay:10.37,2013-08-11 10:38:00,
2013-08-11 06:43:00,70.5,69.0,30.00,North,350,0.0,0.0,95,0.00,OVC,,0.00,WeatherDisplay:10.37,2013-08-11 10:43:00,
2013-08-11 06:48:00,70.3,68.8,30.00,North,350,0.0,0.0,95,0.00,OVC,,0.00,WeatherDisplay:10.37,2013-08-11 10:48:00,
2013-08-11 06:54:00,70.3,68.8,30.00,North,350,0.0,0.0,95,0.00,OVC,,0.00,WeatherDisplay:10.37,2013-08-11 10:54:00,
2013-08-11 07:00:00,70.3,68.8,30.00,North,350,0.0,0.0,95,0.00,OVC,,0.00,WeatherDisplay:10.37,2013-08-11 11:00:00,
2013-08-11 07:05:00,70.3,68.8,30.00,North,350,0.0,0.0,95,0.00,OVC,,0.00,WeatherDisplay:10.37,2013-08-11 11:05:00,
2013-08-11 07:10:00,70.3,68.8,30.00,North,350,0.0,0.0,95,0.00,OVC,,0.00,WeatherDisplay:10.37,2013-08-11 11:10:00,
2013-08-11 07:15:00,70.3,68.8,29.99,North,350,0.0,0.0,95,0.00,OVC,,0.00,WeatherDisplay:10.37,2013-08-11 11:15:00,
2013-08-11 07:20:00,70.3,68.8,29.99,North,350,0.0,0.0,95,0.00,OVC,,0.00,WeatherDisplay:10.37,2013-08-11 11:20:00,
2013-08-11 07:25:00,70.3,68.8,30.00,North,350,0.0,0.0,95,0.00,OVC,,0.00,WeatherDisplay:10.37,2013-08-11 11:25:00,
2013-08-11 07:30:00,70.3,68.8,29.99,North,350,0.0,0.0,95,0.00,OVC,,0.00,WeatherDisplay:10.37,2013-08-11 11:30:00,
2013-08-11 07:36:00,70.2,68.7,29.99,North,350,0.0,0.0,95,0.00,OVC,,0.00,WeatherDisplay:10.37,2013-08-11 11:36:00,
2013-08-11 07:41:00,70.2,68.7,29.99,North,350,0.0,0.0,95,0.00,OVC,,0.00,WeatherDisplay:10.37,2013-08-11 11:41:00,
2013-08-11 07:46:00,70.2,68.7,30.00,North,350,0.0,0.0,95,0.00,OVC,,0.00,WeatherDisplay:10.37,2013-08-11 11:46:00,
2013-08-11 07:52:00,70.2,68.7,30.00,North,350,0.0,0.0,95,0.00,OVC,,0.00,WeatherDisplay:10.37,2013-08-11 11:52:00,
2013-08-11 07:57:00,70.2,68.7,29.99,North,350,0.0,0.0,95,0.00,OVC,,0.00,WeatherDisplay:10.37,2013-08-11 11:57:00,
2013-08-11 08:02:00,70.3,68.8,30.00,North,350,0.0,0.0,95,0.00,OVC,,0.00,WeatherDisplay:10.37,2013-08-11 12:02:00,
2013-08-11 08:07:00,70.3,68.8,30.00,North,350,0.0,0.0,95,0.00,OVC,,0.00,WeatherDisplay:10.37,2013-08-11 12:07:00,
2013-08-11 08:12:00,70.5,69.0,30.00,North,350,0.0,0.0,95,0.00,OVC,,0.00,WeatherDisplay:10.37,2013-08-11 12:12:00,
2013-08-11 08:17:00,70.5,69.0,30.00,North,350,0.0,0.0,95,0.00,OVC,,0.00,WeatherDisplay:10.37,2013-08-11 12:17:00,
2013-08-11 08:23:00,70.5,69.3,30.00,North,350,0.0,0.0,96,0.00,OVC,,0.00,WeatherDisplay:10.37,2013-08-11 12:23:00,
2013-08-11 08:29:00,70.7,69.5,30.00,North,350,0.0,0.0,96,0.00,OVC,,0.00,WeatherDisplay:10.37,2013-08-11 12:29:00,
2013-08-11 08:34:00,70.9,69.7,30.00,North,350,0.0,0.0,96,0.00,OVC,,0.00,WeatherDisplay:10.37,2013-08-11 12:34:00,
2013-08-11 08:39:00,70.9,69.7,30.00,North,350,0.0,0.0,96,0.00,OVC,,0.00,WeatherDisplay:10.37,2013-08-11 12:39:00,
2013-08-11 08:44:00,70.9,69.7,30.00,North,350,0.0,0.0,96,0.00,OVC,,0.00,WeatherDisplay:10.37,2013-08-11 12:44:00,
2013-08-11 08:49:00,71.2,70.0,30.01,North,350,0.0,0.0,96,0.00,BKN,OVC,0.00,WeatherDisplay:10.37,2013-08-11 12:49:00,
2013-08-11 08:55:00,71.2,70.0,30.01,North,350,0.0,0.0,96,0.00,BKN,OVC,0.00,WeatherDisplay:10.37,2013-08-11 12:55:00,
2013-08-11 09:00:00,71.2,70.0,30.01,North,350,0.0,0.0,96,0.00,BKN,OVC,0.00,WeatherDisplay:10.37,2013-08-11 13:00:00,
2013-08-11 09:05:00,71.4,70.2,30.01,North,350,0.0,0.0,96,0.00,BKN,OVC,0.00,WeatherDisplay:10.37,2013-08-11 13:05:00,
2013-08-11 09:11:00,71.8,70.6,30.00,North,350,0.0,0.0,96,0.00,BKN,OVC,0.00,WeatherDisplay:10.37,2013-08-11 13:11:00,
2013-08-11 09:16:00,72.0,70.8,30.01,West,260,5.8,5.8,96,0.00,BKN,OVC,0.00,WeatherDisplay:10.37,2013-08-11 13:16:00,
2013-08-11 09:21:00,72.1,70.9,30.01,West,260,5.8,5.8,96,0.00,BKN,OVC,0.00,WeatherDisplay:10.37,2013-08-11 13:21:00,
2013-08-11 09:27:00,72.7,71.8,30.01,West,260,5.8,5.8,97,0.00,BKN,OVC,0.00,WeatherDisplay:10.37,2013-08-11 13:27:00,
2013-08-11 09:32:00,73.0,72.1,30.01,West,260,5.8,5.8,97,0.00,BKN,OVC,0.00,WeatherDisplay:10.37,2013-08-11 13:32:00,
2013-08-11 09:37:00,73.2,72.3,30.01,West,260,5.8,5.8,97,0.00,BKN,OVC,0.00,WeatherDisplay:10.37,2013-08-11 13:37:00,
2013-08-11 09:42:00,73.2,72.3,30.01,West,260,5.8,5.8,97,0.00,BKN,OVC,0.00,WeatherDisplay:10.37,2013-08-11 13:42:00,
2013-08-11 09:48:00,73.8,72.9,30.01,West,260,5.8,5.8,97,0.00,BKN,OVC,0.00,WeatherDisplay:10.37,2013-08-11 13:48:00,
2013-08-11 09:53:00,73.9,73.0,30.01,West,260,5.8,5.8,97,0.00,BKN,OVC,0.00,WeatherDisplay:10.37,2013-08-11 13:53:00,
2013-08-11 09:58:00,74.5,73.6,30.01,West,260,5.8,5.8,97,0.00,BKN,OVC,0.00,WeatherDisplay:10.37,2013-08-11 13:58:00,
2013-08-11 10:04:00,74.8,73.9,30.01,West,260,5.8,5.8,97,0.00,BKN,OVC,0.00,WeatherDisplay:10.37,2013-08-11 14:04:00,
2013-08-11 10:09:00,75.0,74.1,30.01,West,260,5.8,5.8,97,0.00,BKN,OVC,0.00,WeatherDisplay:10.37,2013-08-11 14:09:00,
2013-08-11 10:14:00,75.4,74.5,30.01,West,260,5.8,5.8,97,0.00,BKN,OVC,0.00,WeatherDisplay:10.37,2013-08-11 14:14:00,
2013-08-11 10:19:00,75.7,74.5,30.01,West,280,8.1,8.1,96,0.00,BKN,OVC,0.00,WeatherDisplay:10.37,2013-08-11 14:19:00,
2013-08-11 10:24:00,75.9,74.7,30.01,West,280,8.1,8.1,96,0.00,BKN,OVC,0.00,WeatherDisplay:10.37,2013-08-11 14:24:00,
2013-08-11 10:29:00,76.3,75.1,30.01,West,280,8.1,8.1,96,0.00,BKN,OVC,0.00,WeatherDisplay:10.37,2013-08-11 14:29:00,
2013-08-11 10:34:00,76.8,75.3,30.01,West,280,8.1,8.1,95,0.00,BKN,OVC,0.00,WeatherDisplay:10.37,2013-08-11 14:34:00,
2013-08-11 10:40:00,77.2,75.6,30.01,West,280,8.0,0.0,95,0.00,BKN,OVC,0.00,WeatherDisplay:10.37,2013-08-11 14:40:00,
2013-08-11 10:45:00,77.4,75.8,30.01,West,280,8.1,8.1,95,0.00,BKN,OVC,0.00,WeatherDisplay:10.37,2013-08-11 14:45:00,
2013-08-11 10:50:00,77.7,75.8,30.01,West,280,8.0,0.0,94,0.00,BKN,OVC,0.00,WeatherDisplay:10.37,2013-08-11 14:50:00,
2013-08-11 10:55:00,78.1,76.2,30.01,West,280,8.1,8.1,94,0.00,BKN,OVC,0.00,WeatherDisplay:10.37,2013-08-11 14:55:00,
2013-08-11 11:01:00,78.4,75.9,30.01,West,280,8.1,8.1,92,0.00,BKN,OVC,0.00,WeatherDisplay:10.37,2013-08-11 15:01:00,
2013-08-11 11:07:00,78.6,75.8,30.01,West,280,8.1,8.1,91,0.00,BKN,OVC,0.00,WeatherDisplay:10.37,2013-08-11 15:07:00,
2013-08-11 11:12:00,79.2,76.3,30.01,West,280,8.1,8.1,91,0.00,BKN,OVC,0.00,WeatherDisplay:10.37,2013-08-11 15:12:00,
2013-08-11 11:17:00,79.3,76.1,30.01,West,260,9.2,9.2,90,0.00,BKN,OVC,0.00,WeatherDisplay:10.37,2013-08-11 15:17:00,
2013-08-11 11:22:00,79.7,76.2,30.01,West,260,9.2,9.2,89,0.00,BKN,OVC,0.00,WeatherDisplay:10.37,2013-08-11 15:22:00,
2013-08-11 11:27:00,79.9,76.3,30.00,West,260,9.2,9.2,89,0.00,BKN,OVC,0.00,WeatherDisplay:10.37,2013-08-11 15:27:00,
2013-08-11 11:33:00,80.4,76.9,30.00,West,260,9.2,9.2,89,0.00,BKN,OVC,0.00,WeatherDisplay:10.37,2013-08-11 15:33:00,
2013-08-11 11:38:00,80.4,76.9,30.00,West,260,9.2,9.2,89,0.00,BKN,OVC,0.00,WeatherDisplay:10.37,2013-08-11 15:38:00,
2013-08-11 11:43:00,80.4,76.9,30.00,West,260,9.2,9.2,89,0.00,BKN,OVC,0.00,WeatherDisplay:10.37,2013-08-11 15:43:00,
2013-08-11 11:49:00,80.4,76.5,30.01,West,260,8.1,8.1,88,0.00,BKN,OVC,0.00,WeatherDisplay:10.37,2013-08-11 15:49:00,
2013-08-11 11:54:00,80.4,76.5,30.00,West,260,8.1,8.1,88,0.00,BKN,OVC,0.00,WeatherDisplay:10.37,2013-08-11 15:54:00,
2013-08-11 12:00:00,80.8,76.5,30.00,West,260,8.1,8.1,87,0.00,BKN,OVC,0.00,WeatherDisplay:10.37,2013-08-11 16:00:00,
2013-08-11 12:05:00,81.1,76.9,30.00,West,260,8.1,8.1,87,0.00,BKN,OVC,0.00,WeatherDisplay:10.37,2013-08-11 16:05:00,
2013-08-11 12:10:00,81.3,76.4,30.00,West,260,8.1,8.1,85,0.00,BKN,OVC,0.00,WeatherDisplay:10.37,2013-08-11 16:10:00,
2013-08-11 12:15:00,81.7,76.4,30.00,West,260,8.1,8.1,84,0.00,BKN,OVC,0.00,WeatherDisplay:10.37,2013-08-11 16:15:00,
2013-08-11 12:20:00,81.7,76.4,30.00,WSW,250,8.0,0.0,84,0.00,BKN,OVC,0.00,WeatherDisplay:10.37,2013-08-11 16:20:00,
2013-08-11 12:25:00,82.2,76.9,30.00,WSW,240,8.1,8.1,84,0.00,BKN,OVC,0.00,WeatherDisplay:10.37,2013-08-11 16:25:00,
2013-08-11 12:30:00,82.2,76.5,29.99,WSW,240,8.1,8.1,83,0.00,BKN,OVC,0.00,WeatherDisplay:10.37,2013-08-11 16:30:00,
2013-08-11 12:35:00,82.6,76.9,29.99,WSW,240,8.1,8.1,83,0.00,BKN,OVC,0.00,WeatherDisplay:10.37,2013-08-11 16:35:00,
2013-08-11 12:40:00,82.9,77.2,29.99,WSW,240,8.1,8.1,83,0.00,BKN,OVC,0.00,WeatherDisplay:10.37,2013-08-11 16:40:00,
2013-08-11 12:46:00,83.3,77.2,29.99,WSW,240,8.1,8.1,82,0.00,BKN,OVC,0.00,WeatherDisplay:10.37,2013-08-11 16:46:00,
2013-08-11 12:51:00,83.5,77.0,29.99,WSW,240,8.1,8.1,81,0.00,BKN,OVC,0.00,WeatherDisplay:10.37,2013-08-11 16:51:00,
2013-08-11 12:56:00,83.8,77.0,29.99,WSW,240,8.1,8.1,80,0.00,BKN,OVC,0.00,WeatherDisplay:10.37,2013-08-11 16:56:00,
2013-08-11 13:01:00,84.0,77.2,29.99,WSW,240,8.1,8.1,80,0.00,BKN,OVC,0.00,WeatherDisplay:10.37,2013-08-11 17:01:00,
2013-08-11 13:06:00,84.0,77.6,29.99,WSW,240,8.1,8.1,81,0.00,BKN,OVC,0.00,WeatherDisplay:10.37,2013-08-11 17:06:00,
2013-08-11 13:11:00,84.0,77.2,29.99,WSW,240,8.1,8.1,80,0.00,BKN,OVC,0.00,WeatherDisplay:10.37,2013-08-11 17:11:00,
2013-08-11 13:17:00,84.0,77.2,29.99,SW,230,8.1,8.1,80,0.00,BKN,OVC,0.00,WeatherDisplay:10.37,2013-08-11 17:17:00,
2013-08-11 13:22:00,84.0,77.2,29.98,SW,230,8.1,8.1,80,0.00,BKN,OVC,0.00,WeatherDisplay:10.37,2013-08-11 17:22:00,
2013-08-11 13:27:00,84.0,77.6,29.98,SW,230,8.1,8.1,81,0.00,BKN,OVC,0.00,WeatherDisplay:10.37,2013-08-11 17:27:00,
2013-08-11 13:33:00,84.4,77.2,29.98,SW,230,8.1,8.1,79,0.00,BKN,OVC,0.00,WeatherDisplay:10.37,2013-08-11 17:33:00,
2013-08-11 13:38:00,84.7,77.1,29.98,SW,230,8.1,8.1,78,0.00,BKN,OVC,0.00,WeatherDisplay:10.37,2013-08-11 17:38:00,
2013-08-11 13:43:00,85.1,77.1,29.98,SW,230,8.1,8.1,77,0.00,BKN,OVC,0.00,WeatherDisplay:10.37,2013-08-11 17:43:00,
2013-08-11 13:49:00,85.1,77.1,29.98,SW,230,8.1,8.1,77,0.00,BKN,OVC,0.00,WeatherDisplay:10.37,2013-08-11 17:49:00,
2013-08-11 13:54:00,85.1,77.5,29.98,SW,230,8.1,8.1,78,0.00,BKN,OVC,0.00,WeatherDisplay:10.37,2013-08-11 17:54:00,
2013-08-11 13:59:00,85.3,76.9,29.98,SW,230,8.1,8.1,76,0.00,BKN,OVC,0.00,WeatherDisplay:10.37,2013-08-11 17:59:00,
2013-08-11 14:05:00,84.9,76.9,29.98,SW,230,8.1,8.1,77,0.00,BKN,OVC,0.00,WeatherDisplay:10.37,2013-08-11 18:05:00,
2013-08-11 14:10:00,84.7,76.7,29.98,SW,230,8.1,8.1,77,0.00,BKN,OVC,0.00,WeatherDisplay:10.37,2013-08-11 18:10:00,
2013-08-11 14:15:00,84.0,76.4,29.98,SW,230,8.1,8.1,78,0.00,BKN,OVC,0.00,WeatherDisplay:10.37,2013-08-11 18:15:00,
2013-08-11 14:20:00,83.5,76.7,29.98,West,260,9.2,9.2,80,0.00,BKN,OVC,0.00,WeatherDisplay:10.37,2013-08-11 18:20:00,
2013-08-11 14:25:00,82.9,76.5,29.98,West,260,9.2,9.2,81,0.00,BKN,OVC,0.00,WeatherDisplay:10.37,2013-08-11 18:25:00,
2013-08-11 14:31:00,82.2,76.2,29.98,West,260,9.2,9.2,82,0.00,BKN,OVC,0.00,WeatherDisplay:10.37,2013-08-11 18:31:00,
2013-08-11 14:36:00,82.2,76.5,29.97,West,260,9.2,9.2,83,0.00,BKN,OVC,0.00,WeatherDisplay:10.37,2013-08-11 18:36:00,
2013-08-11 14:41:00,81.7,76.0,29.97,West,260,9.2,9.2,83,0.00,BKN,OVC,0.00,WeatherDisplay:10.37,2013-08-11 18:41:00,
2013-08-11 14:46:00,81.9,76.5,29.97,West,260,9.2,9.2,84,0.00,BKN,OVC,0.00,WeatherDisplay:10.37,2013-08-11 18:46:00,
2013-08-11 14:51:00,82.2,76.9,29.96,West,260,9.2,9.2,84,0.00,BKN,OVC,0.00,WeatherDisplay:10.37,2013-08-11 18:51:00,
2013-08-11 14:57:00,82.2,76.5,29.96,West,260,9.2,9.2,83,0.00,BKN,OVC,0.00,WeatherDisplay:10.37,2013-08-11 18:57:00,
2013-08-11 15:02:00,83.3,77.2,29.96,West,260,9.2,9.2,82,0.00,BKN,OVC,0.00,WeatherDisplay:10.37,2013-08-11 19:02:00,
2013-08-11 15:07:00,83.8,77.8,29.96,West,260,9.2,9.2,82,0.00,BKN,OVC,0.00,WeatherDisplay:10.37,2013-08-11 19:07:00,
2013-08-11 15:13:00,84.2,77.0,29.96,West,260,9.2,9.2,79,0.00,BKN,OVC,0.00,WeatherDisplay:10.37,2013-08-11 19:13:00,
2013-08-11 15:18:00,84.7,76.7,29.96,WSW,240,10.4,10.4,77,0.00,BKN,OVC,0.00,WeatherDisplay:10.37,2013-08-11 19:18:00,
2013-08-11 15:23:00,85.1,77.1,29.96,WSW,240,10.4,10.4,77,0.00,BKN,OVC,0.00,WeatherDisplay:10.37,2013-08-11 19:23:00,
2013-08-11 15:28:00,85.3,77.2,29.95,WSW,240,10.4,10.4,77,0.00,BKN,OVC,0.00,WeatherDisplay:10.37,2013-08-11 19:28:00,
2013-08-11 15:33:00,85.6,78.0,29.95,WSW,240,10.4,10.4,78,0.00,BKN,OVC,0.00,WeatherDisplay:10.37,2013-08-11 19:33:00,
2013-08-11 15:38:00,85.8,78.2,29.95,WSW,240,10.4,10.4,78,0.00,BKN,OVC,0.00,WeatherDisplay:10.37,2013-08-11 19:38:00,
2013-08-11 15:44:00,86.4,77.5,29.95,WSW,240,10.4,10.4,75,0.00,BKN,OVC,0.00,WeatherDisplay:10.37,2013-08-11 19:44:00,
2013-08-11 15:49:00,86.7,77.8,29.95,WSW,240,10.4,10.4,75,0.00,BKN,OVC,0.00,WeatherDisplay:10.37,2013-08-11 19:49:00,
2013-08-11 15:54:00,86.7,77.8,29.94,WSW,240,10.4,10.4,75,0.00,BKN,OVC,0.00,WeatherDisplay:10.37,2013-08-11 19:54:00,
2013-08-11 16:00:00,86.7,78.2,29.94,WSW,240,10.0,0.0,76,0.00,BKN,OVC,0.00,WeatherDisplay:10.37,2013-08-11 20:00:00,
2013-08-11 16:05:00,87.1,78.6,29.94,WSW,240,10.4,10.4,76,0.00,BKN,OVC,0.00,WeatherDisplay:10.37,2013-08-11 20:05:00,
2013-08-11 16:10:00,87.1,78.6,29.94,WSW,240,10.4,10.4,76,0.00,BKN,OVC,0.00,WeatherDisplay:10.37,2013-08-11 20:10:00,
2013-08-11 16:16:00,87.4,78.1,29.93,SW,230,10.4,10.4,74,0.00,BKN,OVC,0.00,WeatherDisplay:10.37,2013-08-11 20:16:00,
2013-08-11 16:21:00,87.6,78.7,29.93,SW,230,18.4,18.4,75,0.00,BKN,OVC,0.00,WeatherDisplay:10.37,2013-08-11 20:21:00,
2013-08-11 16:26:00,87.4,77.3,29.93,SW,230,18.4,18.4,72,0.00,BKN,OVC,0.00,WeatherDisplay:10.37,2013-08-11 20:26:00,
2013-08-11 16:31:00,87.4,77.7,29.93,SW,230,18.4,18.4,73,0.00,BKN,OVC,0.00,WeatherDisplay:10.37,2013-08-11 20:31:00,
2013-08-11 16:36:00,87.3,78.0,29.93,SW,230,18.4,18.4,74,0.00,BKN,OVC,0.00,WeatherDisplay:10.37,2013-08-11 20:36:00,
2013-08-11 16:42:00,87.1,78.2,29.93,SW,230,18.4,18.4,75,0.00,BKN,OVC,0.00,WeatherDisplay:10.37,2013-08-11 20:42:00,
2013-08-11 16:47:00,87.3,78.4,29.92,SW,230,18.4,18.4,75,0.00,BKN,OVC,0.00,WeatherDisplay:10.37,2013-08-11 20:47:00,
2013-08-11 16:52:00,87.3,78.4,29.92,SW,230,18.4,18.4,75,0.00,BKN,OVC,0.00,WeatherDisplay:10.37,2013-08-11 20:52:00,
2013-08-11 16:57:00,87.1,78.2,29.92,SW,230,18.4,18.4,75,0.00,BKN,OVC,0.00,WeatherDisplay:10.37,2013-08-11 20:57:00,
2013-08-11 17:02:00,86.9,78.4,29.92,SW,230,18.4,18.4,76,0.00,BKN,OVC,0.00,WeatherDisplay:10.37,2013-08-11 21:02:00,
2013-08-11 17:08:00,86.7,78.6,29.93,SW,230,18.4,18.4,77,0.00,BKN,OVC,0.00,WeatherDisplay:10.37,2013-08-11 21:08:00,
2013-08-11 17:13:00,86.5,78.1,29.93,SW,230,18.4,18.4,76,0.00,BKN,OVC,0.00,WeatherDisplay:10.37,2013-08-11 21:13:00,
2013-08-11 17:18:00,86.4,77.1,29.93,WSW,240,18.4,18.4,74,0.00,BKN,OVC,0.00,WeatherDisplay:10.37,2013-08-11 21:18:00,
2013-08-11 17:23:00,86.2,76.9,29.92,WSW,240,9.2,9.2,74,0.00,BKN,OVC,0.00,WeatherDisplay:10.37,2013-08-11 21:23:00,
2013-08-11 17:28:00,85.8,77.0,29.92,WSW,240,9.2,9.2,75,0.00,BKN,OVC,0.00,WeatherDisplay:10.37,2013-08-11 21:28:00,
2013-08-11 17:33:00,85.6,76.8,29.92,WSW,240,9.2,9.2,75,0.00,BKN,OVC,0.00,WeatherDisplay:10.37,2013-08-11 21:33:00,
2013-08-11 17:38:00,85.3,76.0,29.92,WSW,240,9.2,9.2,74,0.00,BKN,OVC,0.00,WeatherDisplay:10.37,2013-08-11 21:38:00,
2013-08-11 17:43:00,85.1,77.1,29.92,WSW,240,9.2,9.2,77,0.00,BKN,OVC,0.00,WeatherDisplay:10.37,2013-08-11 21:43:00,
2013-08-11 17:48:00,84.9,76.9,29.92,WSW,240,9.2,9.2,77,0.00,BKN,OVC,0.00,WeatherDisplay:10.37,2013-08-11 21:48:00,
2013-08-11 17:53:00,84.7,76.3,29.93,WSW,240,9.2,9.2,76,0.00,BKN,OVC,0.00,WeatherDisplay:10.37,2013-08-11 21:53:00,
2013-08-11 17:58:00,84.6,76.6,29.93,WSW,240,9.2,9.2,77,0.00,BKN,OVC,0.00,WeatherDisplay:10.37,2013-08-11 21:58:00,
2013-08-11 18:04:00,84.2,76.2,29.93,WSW,240,9.2,9.2,77,0.00,BKN,OVC,0.00,WeatherDisplay:10.37,2013-08-11 22:04:00,
2013-08-11 18:09:00,84.0,76.0,29.93,WSW,240,9.2,9.2,77,0.00,BKN,OVC,0.00,WeatherDisplay:10.37,2013-08-11 22:09:00,
2013-08-11 18:15:00,83.8,76.2,29.93,WSW,240,9.2,9.2,78,0.00,BKN,OVC,0.00,WeatherDisplay:10.37,2013-08-11 22:15:00,
2013-08-11 18:20:00,83.5,75.9,29.93,WSW,250,5.8,5.8,78,0.00,BKN,OVC,0.00,WeatherDisplay:10.37,2013-08-11 22:20:00,
2013-08-11 18:25:00,83.5,76.3,29.93,WSW,250,5.8,5.8,79,0.00,BKN,OVC,0.00,WeatherDisplay:10.37,2013-08-11 22:25:00,
2013-08-11 18:31:00,83.1,75.9,29.93,WSW,250,5.8,5.8,79,0.00,BKN,OVC,0.00,WeatherDisplay:10.37,2013-08-11 22:31:00,
2013-08-11 18:36:00,83.1,75.9,29.93,WSW,250,5.8,5.8,79,0.00,BKN,OVC,0.00,WeatherDisplay:10.37,2013-08-11 22:36:00,
2013-08-11 18:41:00,82.9,75.8,29.93,WSW,250,5.8,5.8,79,0.00,BKN,OVC,0.00,WeatherDisplay:10.37,2013-08-11 22:41:00,
2013-08-11 18:47:00,82.6,75.8,29.93,WSW,250,5.8,5.8,80,0.00,BKN,OVC,0.00,WeatherDisplay:10.37,2013-08-11 22:47:00,
2013-08-11 18:52:00,82.2,75.8,29.93,WSW,250,5.8,5.8,81,0.00,BKN,OVC,0.00,WeatherDisplay:10.37,2013-08-11 22:52:00,
2013-08-11 18:58:00,82.0,75.6,29.93,WSW,250,5.8,5.8,81,0.00,BKN,OVC,0.00,WeatherDisplay:10.37,2013-08-11 22:58:00,
2013-08-11 19:03:00,82.0,75.6,29.93,WSW,250,5.8,5.8,81,0.00,BKN,OVC,0.00,WeatherDisplay:10.37,2013-08-11 23:03:00,
2013-08-11 19:09:00,81.7,75.3,29.93,WSW,250,5.8,5.8,81,0.00,BKN,OVC,0.00,WeatherDisplay:10.37,2013-08-11 23:09:00,
2013-08-11 19:14:00,81.5,75.5,29.94,WSW,250,5.8,5.8,82,0.00,BKN,OVC,0.00,WeatherDisplay:10.37,2013-08-11 23:14:00,
2013-08-11 19:19:00,81.3,75.3,29.93,NNW,330,6.9,6.9,82,0.00,BKN,OVC,0.00,WeatherDisplay:10.37,2013-08-11 23:19:00,
2013-08-11 19:25:00,81.1,75.5,29.94,NNW,330,6.9,6.9,83,0.00,BKN,OVC,0.00,WeatherDisplay:10.37,2013-08-11 23:25:00,
2013-08-11 19:30:00,81.0,75.3,29.94,NNW,330,6.9,6.9,83,0.00,BKN,OVC,0.00,WeatherDisplay:10.37,2013-08-11 23:30:00,
2013-08-11 19:35:00,80.8,75.5,29.95,NNW,330,6.9,6.9,84,0.00,BKN,OVC,0.00,WeatherDisplay:10.37,2013-08-11 23:35:00,
2013-08-11 19:41:00,80.4,75.1,29.94,NNW,330,6.9,6.9,84,0.00,BKN,OVC,0.00,WeatherDisplay:10.37,2013-08-11 23:41:00,
2013-08-11 19:46:00,80.4,75.5,29.95,NNW,330,6.9,6.9,85,0.00,BKN,OVC,0.00,WeatherDisplay:10.37,2013-08-11 23:46:00,
2013-08-11 19:53:00,80.2,75.3,29.95,NNW,330,6.9,6.9,85,0.00,BKN,OVC,0.00,WeatherDisplay:10.37,2013-08-11 23:53:00,
2013-08-11 19:58:00,80.1,75.1,29.95,NNW,330,6.9,6.9,85,0.00,BKN,OVC,0.00,WeatherDisplay:10.37,2013-08-11 23:58:00,
2013-08-11 20:03:00,79.9,75.0,29.95,NNW,330,6.9,6.9,85,0.00,BKN,OVC,0.00,WeatherDisplay:10.37,2013-08-12 00:03:00,
2013-08-11 20:08:00,79.9,75.3,29.95,NNW,330,6.9,6.9,86,0.00,BKN,OVC,0.00,WeatherDisplay:10.37,2013-08-12 00:08:00,
2013-08-11 20:14:00,79.5,75.0,29.95,NNW,330,6.9,6.9,86,0.00,BKN,OVC,0.00,WeatherDisplay:10.37,2013-08-12 00:14:00,
2013-08-11 20:19:00,79.5,75.0,29.95,North,350,5.8,5.8,86,0.00,BKN,OVC,0.00,WeatherDisplay:10.37,2013-08-12 00:19:00,
2013-08-11 20:24:00,79.3,74.8,29.95,North,350,5.8,5.8,86,0.00,BKN,OVC,0.00,WeatherDisplay:10.37,2013-08-12 00:24:00,
2013-08-11 20:29:00,79.3,75.1,29.95,North,350,5.8,5.8,87,0.00,BKN,OVC,0.00,WeatherDisplay:10.37,2013-08-12 00:29:00,
2013-08-11 20:34:00,79.2,75.0,29.95,North,350,5.8,5.8,87,0.00,BKN,OVC,0.00,WeatherDisplay:10.37,2013-08-12 00:34:00,
2013-08-11 20:39:00,79.2,75.0,29.95,North,350,5.8,5.8,87,0.00,BKN,OVC,0.00,WeatherDisplay:10.37,2013-08-12 00:39:00,
2013-08-11 20:44:00,79.0,74.4,29.95,North,350,5.8,5.8,86,0.00,BKN,OVC,0.00,WeatherDisplay:10.37,2013-08-12 00:44:00,
2013-08-11 20:49:00,79.0,74.1,29.96,NE,40,4.6,4.6,85,0.00,OVC,,0.00,WeatherDisplay:10.37,2013-08-12 00:49:00,
2013-08-11 20:55:00,78.6,73.7,29.96,NE,40,4.6,4.6,85,0.00,OVC,,0.00,WeatherDisplay:10.37,2013-08-12 00:55:00,
2013-08-11 21:02:00,78.3,73.7,29.96,NE,40,4.6,4.6,86,0.16,RA,OVC,0.16,WeatherDisplay:10.37,2013-08-12 01:02:00,
2013-08-11 21:07:00,77.9,73.7,29.96,NE,40,4.6,4.6,87,0.16,RA,OVC,0.16,WeatherDisplay:10.37,2013-08-12 01:07:00,
2013-08-11 21:13:00,77.4,73.2,29.96,NE,40,4.6,4.6,87,0.16,OVC,,0.16,WeatherDisplay:10.37,2013-08-12 01:13:00,
2013-08-11 21:18:00,77.0,72.8,29.96,SW,230,36.8,36.8,87,0.18,RA,OVC,0.18,WeatherDisplay:10.37,2013-08-12 01:18:00,
2013-08-11 21:23:00,76.8,73.0,29.97,SW,230,36.8,36.8,88,0.18,RA,OVC,0.18,WeatherDisplay:10.37,2013-08-12 01:23:00,
2013-08-11 21:29:00,76.6,72.8,29.97,SW,230,36.8,36.8,88,0.18,BKN,OVC,0.18,WeatherDisplay:10.37,2013-08-12 01:29:00,
2013-08-11 21:34:00,76.3,72.5,29.96,SW,230,36.8,36.8,88,0.18,BKN,OVC,0.18,WeatherDisplay:10.37,2013-08-12 01:34:00,
2013-08-11 21:40:00,76.1,72.6,29.97,SW,230,20.0,0.0,89,0.00,BKN,OVC,0.18,WeatherDisplay:10.37,2013-08-12 01:40:00,
2013-08-11 21:45:00,75.9,72.4,29.96,SW,230,36.8,36.8,89,0.18,BKN,OVC,0.18,WeatherDisplay:10.37,2013-08-12 01:45:00,
2013-08-11 21:50:00,75.7,72.6,29.96,South,170,3.5,3.5,90,0.18,BKN,OVC,0.18,WeatherDisplay:10.37,2013-08-12 01:50:00,
2013-08-11 21:55:00,75.6,72.4,29.96,South,170,3.5,3.5,90,0.18,BKN,OVC,0.18,WeatherDisplay:10.37,2013-08-12 01:55:00,
2013-08-11 22:01:00,75.4,72.2,29.96,South,170,3.5,3.5,90,0.02,BKN,OVC,0.18,WeatherDisplay:10.37,2013-08-12 02:01:00,
2013-08-11 22:06:00,75.4,72.2,29.97,South,170,3.5,3.5,90,0.02,BKN,OVC,0.18,WeatherDisplay:10.37,2013-08-12 02:06:00,
2013-08-11 22:11:00,75.4,72.6,29.97,South,170,3.5,3.5,91,0.02,BKN,OVC,0.18,WeatherDisplay:10.37,2013-08-12 02:11:00,
2013-08-11 22:16:00,75.4,72.6,29.97,South,170,3.5,0.0,91,0.02,BKN,OVC,0.18,WeatherDisplay:10.37,2013-08-12 02:16:00,
2013-08-11 22:22:00,75.4,72.6,29.98,South,170,0.0,0.0,91,0.00,BKN,OVC,0.18,WeatherDisplay:10.37,2013-08-12 02:22:00,
2013-08-11 22:27:00,75.2,72.4,29.98,South,170,0.0,0.0,91,0.00,BKN,OVC,0.18,WeatherDisplay:10.37,2013-08-12 02:27:00,
2013-08-11 22:33:00,75.0,72.2,29.99,South,170,0.0,0.0,91,0.00,BKN,OVC,0.18,WeatherDisplay:10.37,2013-08-12 02:33:00,
2013-08-11 22:38:00,75.0,72.2,29.99,South,170,0.0,0.0,91,0.00,BKN,OVC,0.18,WeatherDisplay:10.37,2013-08-12 02:38:00,
2013-08-11 22:43:00,74.8,72.0,29.99,South,170,0.0,0.0,91,0.00,BKN,OVC,0.18,WeatherDisplay:10.37,2013-08-12 02:43:00,
2013-08-11 22:49:00,74.8,72.4,29.99,South,170,0.0,0.0,92,0.00,BKN,OVC,0.18,WeatherDisplay:10.37,2013-08-12 02:49:00,
2013-08-11 22:54:00,74.8,72.4,29.99,South,170,0.0,0.0,92,0.00,BKN,OVC,0.18,WeatherDisplay:10.37,2013-08-12 02:54:00,
2013-08-11 22:59:00,74.8,72.4,29.99,South,170,0.0,0.0,92,0.00,BKN,OVC,0.18,WeatherDisplay:10.37,2013-08-12 02:59:00,
2013-08-11 23:04:00,74.8,72.4,29.98,South,170,0.0,0.0,92,0.00,BKN,OVC,0.18,WeatherDisplay:10.37,2013-08-12 03:04:00,
2013-08-11 23:10:00,74.7,72.2,29.98,South,170,0.0,0.0,92,0.00,BKN,OVC,0.18,WeatherDisplay:10.37,2013-08-12 03:10:00,
2013-08-11 23:15:00,74.5,72.0,29.98,South,170,0.0,0.0,92,0.00,BKN,OVC,0.18,WeatherDisplay:10.37,2013-08-12 03:15:00,
2013-08-11 23:20:00,74.5,72.0,29.98,South,178,7.0,0.0,92,0.00,BKN,OVC,0.18,WeatherDisplay:10.37,2013-08-12 03:20:00,
2013-08-11 23:25:00,74.3,71.8,29.97,South,180,6.9,6.9,92,0.00,BKN,OVC,0.18,WeatherDisplay:10.37,2013-08-12 03:25:00,
2013-08-11 23:30:00,74.3,71.8,29.97,South,180,7.0,0.0,92,0.00,BKN,OVC,0.18,WeatherDisplay:10.37,2013-08-12 03:30:00,
2013-08-11 23:35:00,74.3,71.8,29.97,South,180,6.9,6.9,92,0.00,BKN,OVC,0.18,WeatherDisplay:10.37,2013-08-12 03:35:00,
2013-08-11 23:41:00,74.1,71.6,29.96,South,180,6.9,6.9,92,0.00,BKN,OVC,0.18,WeatherDisplay:10.37,2013-08-12 03:41:00,
2013-08-11 23:47:00,74.1,71.6,29.96,South,180,6.9,6.9,92,0.00,BKN,OVC,0.18,WeatherDisplay:10.37,2013-08-12 03:47:00,
2013-08-11 23:52:00,73.9,71.5,29.97,South,180,6.9,6.9,92,0.00,BKN,OVC,0.18,WeatherDisplay:10.37,2013-08-12 03:52:00,
2013-08-11 23:57:00,73.9,71.5,29.97,South,180,6.9,6.9,92,0.00,BKN,OVC,0.18,WeatherDisplay:10.37,2013-08-12 03:57:00,